createdAt,value
2022-10-09T00:00:06.279Z,102437.13
2022-10-09T00:05:15.441Z,102433.53
2022-10-09T00:10:19.356Z,102426.31
2022-10-09T00:15:24.588Z,102433.66
2022-10-09T00:20:28.374Z,102433.53
2022-10-09T00:25:32.230Z,102433.75
2022-10-09T00:30:40.342Z,102423.88
2022-10-09T00:35:44.236Z,102429.28
2022-10-09T00:40:48.012Z,102423.44
2022-10-09T00:45:57.635Z,102428.50
2022-10-09T00:51:03.171Z,102438.47
2022-10-09T00:56:07.317Z,102432.19
2022-10-09T01:01:12.414Z,102433.78
2022-10-09T01:06:21.520Z,102429.16
2022-10-09T01:11:35.762Z,102432.41
2022-10-09T01:16:46.564Z,102434.22
2022-10-09T01:21:59.260Z,102429.38
2022-10-09T01:27:12.066Z,102425.91
2022-10-09T01:32:19.807Z,102416.87
2022-10-09T01:37:24.376Z,102411.16
2022-10-09T01:42:30.824Z,102408.00
2022-10-09T01:47:34.719Z,102404.41
2022-10-09T01:52:45.200Z,102395.19
2022-10-09T01:57:54.723Z,102390.69
2022-10-09T02:02:59.078Z,102386.00
2022-10-09T02:08:03.515Z,102383.41
2022-10-09T02:13:08.832Z,102371.38
2022-10-09T02:18:16.035Z,102374.50
2022-10-09T02:23:22.752Z,102366.16
2022-10-09T02:28:27.958Z,102371.09
2022-10-09T02:33:33.303Z,102367.62
2022-10-09T02:38:37.077Z,102369.72
2022-10-09T02:43:42.158Z,102365.06
2022-10-09T02:48:46.398Z,102368.75
2022-10-09T02:53:52.228Z,102356.53
2022-10-09T02:58:57.548Z,102358.22
2022-10-09T03:04:01.675Z,102356.31
2022-10-09T03:09:05.534Z,102353.47
2022-10-09T03:14:11.292Z,102343.81
2022-10-09T03:19:15.033Z,102341.81
2022-10-09T03:24:18.807Z,102347.97
2022-10-09T03:29:24.043Z,102346.59
2022-10-09T03:34:27.732Z,102349.03
2022-10-09T03:39:31.593Z,102355.09
2022-10-09T03:44:36.654Z,102358.22
2022-10-09T03:49:40.388Z,102346.66
2022-10-09T03:54:44.112Z,102353.47
2022-10-09T03:59:49.209Z,102359.19
2022-10-09T04:04:52.950Z,102360.59
2022-10-09T04:09:56.733Z,102354.19
2022-10-09T04:15:01.892Z,102357.06
2022-10-09T04:20:06.051Z,102354.34
2022-10-09T04:25:10.493Z,102340.72
2022-10-09T04:30:15.854Z,102352.56
2022-10-09T04:35:19.634Z,102340.88
2022-10-09T04:40:23.350Z,102335.34
2022-10-09T04:45:28.500Z,102336.81
2022-10-09T04:50:32.235Z,102333.88
2022-10-09T04:55:40.190Z,102335.66
2022-10-09T05:00:46.860Z,102330.91
2022-10-09T05:05:50.705Z,102327.09
2022-10-09T05:10:54.443Z,102327.59
2022-10-09T05:16:02.428Z,102317.84
2022-10-09T05:21:06.697Z,102312.44
2022-10-09T05:26:14.234Z,102300.38
2022-10-09T05:31:22.344Z,102302.03
2022-10-09T05:36:26.133Z,102298.06
2022-10-09T05:41:30.495Z,102298.59
2022-10-09T05:46:36.099Z,102300.28
2022-10-09T05:51:42.696Z,102304.53
2022-10-09T05:56:46.541Z,102295.78
2022-10-09T06:01:54.541Z,102304.16
2022-10-09T06:06:58.438Z,102315.34
2022-10-09T06:12:02.188Z,102300.44
2022-10-09T06:17:07.245Z,102305.47
2022-10-09T06:22:10.958Z,102305.84
2022-10-09T06:27:14.737Z,102313.28
2022-10-09T06:32:19.828Z,102305.66
2022-10-09T06:37:23.670Z,102313.00
2022-10-09T06:42:27.383Z,102317.22
2022-10-09T06:47:34.950Z,102319.88
2022-10-09T06:52:38.805Z,102320.56
2022-10-09T06:57:42.726Z,102318.97
2022-10-09T07:02:48.207Z,102315.25
2022-10-09T07:07:52.164Z,102319.94
2022-10-09T07:12:55.979Z,102309.91
2022-10-09T07:18:03.559Z,102307.19
2022-10-09T07:23:10.092Z,102312.59
2022-10-09T07:28:13.950Z,102310.16
2022-10-09T07:33:19.050Z,102307.16
2022-10-09T07:38:22.926Z,102319.72
2022-10-09T07:43:29.719Z,102312.00
2022-10-09T07:48:35.342Z,102302.06
2022-10-09T07:53:39.661Z,102307.66
2022-10-09T07:58:43.609Z,102298.63
2022-10-09T08:03:49.327Z,102295.53
2022-10-09T08:08:54.491Z,102285.66
2022-10-09T08:13:58.988Z,102290.31
2022-10-09T08:19:04.893Z,102283.41
2022-10-09T08:24:08.701Z,102280.16
2022-10-09T08:29:17.060Z,102277.69
2022-10-09T08:34:22.100Z,102278.50
2022-10-09T08:39:29.514Z,102276.91
2022-10-09T08:44:39.479Z,102274.63
2022-10-09T08:49:51.474Z,102272.69
2022-10-09T08:54:58.291Z,102263.50
2022-10-09T09:00:02.110Z,102263.50
2022-10-09T09:05:20.618Z,102258.78
2022-10-09T09:10:32.438Z,102253.81
2022-10-09T09:15:48.090Z,102246.50
2022-10-09T09:20:55.620Z,102229.75
2022-10-09T09:25:59.945Z,102230.47
2022-10-09T09:31:09.623Z,102227.91
2022-10-09T09:36:23.343Z,102211.50
2022-10-09T09:41:28.976Z,102204.78
2022-10-09T09:46:33.744Z,102197.13
2022-10-09T09:51:38.913Z,102189.69
2022-10-09T10:02:14.398Z,102174.84
2022-10-09T10:07:30.217Z,102167.53
2022-10-09T10:12:34.275Z,102173.69
2022-10-09T10:17:38.635Z,102169.25
2022-10-09T10:22:51.709Z,102159.03
2022-10-09T10:28:01.838Z,102157.31
2022-10-09T10:33:15.335Z,102149.06
2022-10-09T10:38:26.584Z,102144.47
2022-10-09T10:43:36.951Z,102128.81
2022-10-09T10:48:42.889Z,102128.00
2022-10-09T10:54:02.518Z,102111.37
2022-10-09T10:59:26.212Z,102106.38
2022-10-09T11:04:44.248Z,102101.59
2022-10-09T11:09:59.098Z,102086.63
2022-10-09T11:15:13.607Z,102085.97
2022-10-09T11:20:40.184Z,102076.53
2022-10-09T11:25:55.236Z,102065.91
2022-10-09T11:31:05.149Z,102056.63
2022-10-09T11:36:17.202Z,102040.53
2022-10-09T11:41:22.953Z,102039.03
2022-10-09T11:46:41.430Z,102033.66
2022-10-09T11:51:51.811Z,102026.59
2022-10-09T11:56:59.220Z,102011.75
2022-10-09T12:02:22.994Z,102002.00
2022-10-09T12:07:33.189Z,101994.03
2022-10-09T12:12:38.996Z,101980.75
2022-10-09T12:17:49.852Z,101976.34
2022-10-09T12:23:21.716Z,101956.94
2022-10-09T12:28:29.112Z,101946.84
2022-10-09T12:33:37.861Z,101937.06
2022-10-09T12:38:42.456Z,101919.13
2022-10-09T12:43:49.121Z,101920.75
2022-10-09T12:48:53.094Z,101906.00
2022-10-09T12:53:57.077Z,101893.00
2022-10-09T12:59:03.140Z,101887.59
2022-10-09T13:04:09.457Z,101879.88
2022-10-09T13:09:21.432Z,101864.31
2022-10-09T13:14:29.624Z,101856.41
2022-10-09T13:19:35.357Z,101842.94
2022-10-09T13:24:39.192Z,101840.25
2022-10-09T13:29:44.763Z,101841.72
2022-10-09T13:34:48.529Z,101830.13
2022-10-09T13:39:53.577Z,101816.53
2022-10-09T13:44:58.814Z,101805.38
2022-10-09T13:50:02.632Z,101792.97
2022-10-09T13:55:07.309Z,101790.56
2022-10-09T14:00:13.815Z,101784.88
2022-10-09T14:05:17.781Z,101774.50
2022-10-09T14:10:23.882Z,101767.06
2022-10-09T14:15:29.277Z,101767.22
2022-10-09T14:20:33.339Z,101754.28
2022-10-09T14:25:37.221Z,101745.09
2022-10-09T14:30:42.922Z,101737.16
2022-10-09T14:35:46.758Z,101736.88
2022-10-09T14:40:50.569Z,101721.34
2022-10-09T14:46:04.121Z,101714.09
2022-10-09T14:51:11.379Z,101707.38
2022-10-09T14:56:17.365Z,101704.03
2022-10-09T15:01:23.511Z,101689.00
2022-10-09T15:06:28.214Z,101686.31
2022-10-09T15:11:31.908Z,101684.53
2022-10-09T15:16:37.318Z,101670.22
2022-10-09T15:21:41.352Z,101665.78
2022-10-09T15:26:45.023Z,101659.16
2022-10-09T15:31:51.876Z,101654.97
2022-10-09T15:36:55.669Z,101639.69
2022-10-09T15:41:59.365Z,101635.69
2022-10-09T15:47:04.488Z,101634.97
2022-10-09T15:52:08.268Z,101626.87
2022-10-09T15:57:12.029Z,101626.84
2022-10-09T16:02:17.236Z,101617.78
2022-10-09T16:07:20.980Z,101604.16
2022-10-09T16:12:24.692Z,101597.94
2022-10-09T16:17:29.777Z,101598.69
2022-10-09T16:22:33.788Z,101595.78
2022-10-09T16:27:37.656Z,101588.12
2022-10-09T16:32:42.764Z,101584.50
2022-10-09T16:37:46.605Z,101580.16
2022-10-09T16:42:52.829Z,101569.47
2022-10-09T16:48:01.469Z,101574.50
2022-10-09T16:53:05.396Z,101567.03
2022-10-09T16:58:09.252Z,101568.31
2022-10-09T17:03:14.280Z,101573.19
2022-10-09T17:08:18.105Z,101568.78
2022-10-09T17:13:21.970Z,101565.06
2022-10-09T17:18:27.100Z,101572.59
2022-10-09T17:23:30.955Z,101560.78
2022-10-09T17:28:35.453Z,101568.81
2022-10-09T17:33:42.799Z,101568.44
2022-10-09T17:38:47.304Z,101573.34
2022-10-09T17:43:52.311Z,101568.41
2022-10-09T17:48:58.506Z,101558.50
2022-10-09T17:54:05.972Z,101551.84
2022-10-09T17:59:13.943Z,101548.87
2022-10-09T18:04:19.013Z,101541.44
2022-10-09T18:09:22.871Z,101538.13
2022-10-09T18:14:26.632Z,101538.81
2022-10-09T18:19:31.817Z,101532.78
2022-10-09T18:24:35.642Z,101530.59
2022-10-09T18:29:39.401Z,101529.28
2022-10-09T18:34:46.595Z,101518.09
2022-10-09T18:39:50.727Z,101518.59
2022-10-09T18:44:54.602Z,101523.28
2022-10-09T18:50:01.799Z,101523.97
2022-10-09T18:55:08.508Z,101525.06
2022-10-09T19:00:13.853Z,101515.37
2022-10-09T19:05:19.102Z,101512.38
2022-10-09T19:10:23.088Z,101511.75
2022-10-09T19:15:26.787Z,101502.00
2022-10-09T19:20:32.398Z,101500.75
2022-10-09T19:25:36.214Z,101496.16
2022-10-09T19:30:40.356Z,101498.16
2022-10-09T19:35:50.113Z,101498.75
2022-10-09T19:40:54.438Z,101496.66
2022-10-09T19:46:02.772Z,101491.81
2022-10-09T19:51:10.353Z,101498.41
2022-10-09T19:56:15.843Z,101492.75
2022-10-09T20:01:21.339Z,101488.16
2022-10-09T20:06:27.305Z,101475.69
2022-10-09T20:11:31.028Z,101476.19
2022-10-09T20:16:34.979Z,101470.69
2022-10-09T20:21:40.215Z,101468.50
2022-10-09T20:26:44.047Z,101461.97
2022-10-09T20:31:48.794Z,101465.03
2022-10-09T20:36:54.427Z,101464.72
2022-10-09T20:41:59.619Z,101452.91
2022-10-09T20:47:03.497Z,101459.84
2022-10-09T20:52:08.642Z,101455.72
2022-10-09T20:57:12.357Z,101448.00
2022-10-09T21:02:16.676Z,101445.59
2022-10-09T21:07:21.835Z,101440.84
2022-10-09T21:12:25.582Z,101444.09
2022-10-09T21:17:29.365Z,101434.00
2022-10-09T21:22:34.793Z,101436.03
2022-10-09T21:27:38.579Z,101427.88
2022-10-09T21:32:44.565Z,101432.06
2022-10-09T21:37:50.377Z,101431.69
2022-10-09T21:42:54.044Z,101428.28
2022-10-09T21:47:57.918Z,101421.47
2022-10-09T21:53:03.223Z,101416.03
2022-10-09T21:58:08.108Z,101409.38
2022-10-09T22:03:11.836Z,101408.62
2022-10-09T22:08:16.913Z,101410.88
2022-10-09T22:13:21.740Z,101397.28
2022-10-09T22:18:25.508Z,101389.37
2022-10-09T22:23:30.717Z,101386.72
2022-10-09T22:28:35.400Z,101383.75
2022-10-09T22:33:39.331Z,101373.59
2022-10-09T22:38:45.751Z,101381.12
2022-10-09T22:43:51.205Z,101373.97
2022-10-09T22:48:55.066Z,101375.94
2022-10-09T22:54:00.836Z,101379.59
2022-10-09T22:59:05.445Z,101375.38
2022-10-09T23:04:13.047Z,101378.41
2022-10-09T23:09:19.004Z,101383.59
2022-10-09T23:14:22.717Z,101383.03
2022-10-09T23:19:26.432Z,101372.81
2022-10-09T23:24:31.484Z,101372.19
2022-10-09T23:29:35.279Z,101358.59
2022-10-09T23:34:39.034Z,101356.75
2022-10-09T23:39:44.115Z,101350.59
2022-10-09T23:44:47.826Z,101341.94
2022-10-09T23:49:51.575Z,101345.87
2022-10-09T23:54:56.616Z,101339.34
